createdAt,value
2022-12-03T00:00:11.840Z,100700.63
2022-12-03T00:02:41.022Z,100702.22
2022-12-03T00:05:09.120Z,100705.81
2022-12-03T00:07:36.607Z,100700.63
2022-12-03T00:10:05.145Z,100701.37
2022-12-03T00:12:32.531Z,100705.00
2022-12-03T00:14:59.920Z,100711.06
2022-12-03T00:17:27.702Z,100707.81
2022-12-03T00:19:54.997Z,100714.03
2022-12-03T00:22:22.364Z,100715.97
2022-12-03T00:24:50.049Z,100714.00
2022-12-03T00:27:17.501Z,100713.03
2022-12-03T00:29:45.054Z,100714.06
2022-12-03T00:32:14.023Z,100711.41
2022-12-03T00:34:41.379Z,100718.37
2022-12-03T00:37:08.675Z,100717.56
2022-12-03T00:39:36.260Z,100720.09
2022-12-03T00:42:03.749Z,100716.72
2022-12-03T00:44:31.036Z,100713.34
2022-12-03T00:46:58.728Z,100720.88
2022-12-03T00:49:26.103Z,100726.38
2022-12-03T00:51:53.423Z,100726.84
2022-12-03T00:54:21.035Z,100728.06
2022-12-03T00:56:48.350Z,100715.69
2022-12-03T00:59:15.626Z,100720.31
2022-12-03T01:01:43.356Z,100720.97
2022-12-03T01:04:10.776Z,100712.38
2022-12-03T01:09:06.134Z,100714.84
2022-12-03T01:11:39.038Z,100714.81
2022-12-03T01:14:11.077Z,100713.09
2022-12-03T01:16:38.665Z,100711.91
2022-12-03T01:19:06.666Z,100708.31
2022-12-03T01:21:34.401Z,100714.81
2022-12-03T01:24:01.893Z,100714.91
2022-12-03T01:26:29.222Z,100708.84
2022-12-03T01:28:56.772Z,100714.84
2022-12-03T01:31:42.781Z,100719.88
2022-12-03T01:34:10.399Z,100717.25
2022-12-03T01:36:37.709Z,100722.53
2022-12-03T01:39:05.247Z,100715.06
2022-12-03T01:41:33.371Z,100721.16
2022-12-03T01:44:01.473Z,100722.78
2022-12-03T01:46:35.768Z,100717.63
2022-12-03T01:49:03.550Z,100725.66
2022-12-03T01:51:30.935Z,100725.66
2022-12-03T01:53:58.742Z,100721.22
2022-12-03T01:56:26.382Z,100719.91
2022-12-03T01:58:53.734Z,100725.84
2022-12-03T02:01:21.214Z,100718.09
2022-12-03T02:03:48.913Z,100715.56
2022-12-03T02:06:21.342Z,100715.63
2022-12-03T02:08:49.069Z,100712.75
2022-12-03T02:11:25.993Z,100718.03
2022-12-03T02:13:55.910Z,100718.22
2022-12-03T02:16:24.386Z,100711.53
2022-12-03T02:18:51.862Z,100708.63
2022-12-03T02:22:01.284Z,100714.19
2022-12-03T02:24:59.791Z,100709.09
2022-12-03T02:27:28.462Z,100715.94
2022-12-03T02:29:56.076Z,100713.66
2022-12-03T02:32:23.600Z,100711.06
2022-12-03T02:34:52.158Z,100711.75
2022-12-03T02:37:29.037Z,100711.06
2022-12-03T02:39:59.077Z,100712.72
2022-12-03T02:42:36.067Z,100711.44
2022-12-03T02:45:27.737Z,100707.19
2022-12-03T02:48:08.735Z,100706.25
2022-12-03T02:50:39.144Z,100714.91
2022-12-03T02:53:09.558Z,100716.31
2022-12-03T02:55:37.626Z,100714.91
2022-12-03T02:58:05.581Z,100710.88
2022-12-03T03:00:34.225Z,100716.72
2022-12-03T03:03:02.933Z,100710.63
2022-12-03T03:05:30.669Z,100709.41
2022-12-03T03:07:59.598Z,100712.88
2022-12-03T03:10:27.335Z,100710.66
2022-12-03T03:12:55.369Z,100720.12
2022-12-03T03:15:23.756Z,100712.88
2022-12-03T03:17:51.699Z,100719.84
2022-12-03T03:20:19.487Z,100717.22
2022-12-03T03:22:47.142Z,100719.41
2022-12-03T03:25:17.616Z,100722.00
2022-12-03T03:27:45.481Z,100720.31
2022-12-03T03:30:13.817Z,100718.84
2022-12-03T03:32:41.789Z,100711.72
2022-12-03T03:35:10.005Z,100708.28
2022-12-03T03:37:38.329Z,100710.84
2022-12-03T03:40:06.793Z,100708.34
2022-12-03T03:42:34.517Z,100705.72
2022-12-03T03:45:02.191Z,100707.19
2022-12-03T03:47:29.474Z,100716.06
2022-12-03T03:49:56.880Z,100710.12
2022-12-03T03:52:24.713Z,100710.06
2022-12-03T03:54:52.488Z,100714.72
2022-12-03T03:57:20.322Z,100710.66
2022-12-03T03:59:47.938Z,100708.31
2022-12-03T04:02:20.295Z,100716.81
2022-12-03T04:04:48.685Z,100709.44
2022-12-03T04:07:16.377Z,100715.25
2022-12-03T04:09:44.006Z,100717.72
2022-12-03T04:12:30.687Z,100721.25
2022-12-03T04:14:58.023Z,100727.25
2022-12-03T04:17:26.019Z,100729.31
2022-12-03T04:19:53.373Z,100717.88
2022-12-03T04:22:39.473Z,100715.44
2022-12-03T04:25:27.526Z,100718.56
2022-12-03T04:28:13.427Z,100720.31
2022-12-03T04:30:41.035Z,100710.06
2022-12-03T04:33:27.265Z,100717.84
2022-12-03T04:35:54.968Z,100713.50
2022-12-03T04:38:22.473Z,100720.81
2022-12-03T04:41:01.793Z,100713.66
2022-12-03T04:43:31.567Z,100712.78
2022-12-03T04:45:59.504Z,100723.84
2022-12-03T04:48:26.938Z,100723.06
2022-12-03T04:50:54.539Z,100712.00
2022-12-03T04:53:21.878Z,100718.41
2022-12-03T04:55:49.172Z,100712.81
2022-12-03T04:58:16.738Z,100712.94
2022-12-03T05:00:44.075Z,100715.16
2022-12-03T05:03:11.418Z,100716.84
2022-12-03T05:05:38.986Z,100719.75
2022-12-03T05:08:06.632Z,100730.84
2022-12-03T05:10:34.201Z,100727.41
2022-12-03T05:13:01.754Z,100728.19
2022-12-03T05:15:29.079Z,100737.81
2022-12-03T05:17:56.429Z,100736.84
2022-12-03T05:20:43.243Z,100736.78
2022-12-03T05:23:14.024Z,100743.16
2022-12-03T05:25:41.904Z,100738.06
2022-12-03T05:28:09.209Z,100739.44
2022-12-03T05:30:36.590Z,100736.16
2022-12-03T05:33:04.240Z,100731.16
2022-12-03T05:35:31.639Z,100739.00
2022-12-03T05:37:59.006Z,100737.06
2022-12-03T05:40:26.633Z,100753.16
2022-12-03T05:42:54.005Z,100743.28
2022-12-03T05:45:22.858Z,100741.50
2022-12-03T05:47:50.898Z,100745.69
2022-12-03T05:50:18.545Z,100756.88
2022-12-03T05:52:45.955Z,100757.25
2022-12-03T05:55:13.666Z,100766.19
2022-12-03T05:57:40.973Z,100757.97
2022-12-03T06:00:12.827Z,100771.72
2022-12-03T06:02:40.907Z,100760.34
2022-12-03T06:05:09.927Z,100764.62
2022-12-03T06:07:37.377Z,100760.38
2022-12-03T06:10:06.885Z,100758.56
2022-12-03T06:12:34.523Z,100759.59
2022-12-03T06:15:02.057Z,100760.22
2022-12-03T06:17:29.937Z,100762.84
2022-12-03T06:19:57.546Z,100756.03
2022-12-03T06:22:25.342Z,100753.62
2022-12-03T06:24:53.098Z,100741.56
2022-12-03T06:27:21.043Z,100750.34
2022-12-03T06:29:48.355Z,100745.19
2022-12-03T06:32:15.706Z,100754.72
2022-12-03T06:34:43.346Z,100751.00
2022-12-03T06:37:10.648Z,100760.25
2022-12-03T06:39:38.194Z,100748.13
2022-12-03T06:42:05.883Z,100744.00
2022-12-03T06:44:33.241Z,100755.44
2022-12-03T06:47:00.889Z,100762.94
2022-12-03T06:49:28.488Z,100746.53
2022-12-03T06:51:56.350Z,100754.72
2022-12-03T06:54:23.713Z,100753.75
2022-12-03T06:56:51.294Z,100758.94
2022-12-03T06:59:18.621Z,100765.78
2022-12-03T07:01:45.985Z,100768.56
2022-12-03T07:04:13.671Z,100766.00
2022-12-03T07:06:41.070Z,100766.06
2022-12-03T07:09:08.433Z,100768.00
2022-12-03T07:11:41.952Z,100766.41
2022-12-03T07:14:11.138Z,100767.34
2022-12-03T07:16:39.362Z,100772.00
2022-12-03T07:19:07.110Z,100762.19
2022-12-03T07:21:34.725Z,100757.03
2022-12-03T07:24:02.328Z,100761.50
2022-12-03T07:26:29.857Z,100755.56
2022-12-03T07:28:58.319Z,100765.13
2022-12-03T07:31:26.002Z,100761.06
2022-12-03T07:33:53.369Z,100766.16
2022-12-03T07:36:20.716Z,100768.75
2022-12-03T07:38:48.831Z,100770.69
2022-12-03T07:41:16.195Z,100767.94
2022-12-03T07:43:45.147Z,100767.97
2022-12-03T07:46:12.818Z,100761.22
2022-12-03T07:48:40.355Z,100753.62
2022-12-03T07:51:08.815Z,100759.47
2022-12-03T07:53:38.167Z,100754.31
2022-12-03T07:56:05.876Z,100752.03
2022-12-03T07:58:33.185Z,100755.75
2022-12-03T08:01:00.886Z,100744.72
2022-12-03T08:03:28.626Z,100754.09
2022-12-03T08:05:55.918Z,100755.66
2022-12-03T08:08:23.193Z,100768.47
2022-12-03T08:10:50.810Z,100763.63
2022-12-03T08:13:19.195Z,100761.84
2022-12-03T08:15:46.948Z,100772.59
2022-12-03T08:18:17.917Z,100773.81
2022-12-03T08:20:48.112Z,100774.00
2022-12-03T08:23:23.735Z,100768.09
2022-12-03T08:25:52.607Z,100770.75
2022-12-03T08:28:25.700Z,100770.28
2022-12-03T08:31:01.862Z,100757.41
2022-12-03T08:33:35.288Z,100757.50
2022-12-03T08:36:24.858Z,100763.16
2022-12-03T08:38:55.286Z,100765.41
2022-12-03T08:41:42.010Z,100769.66
2022-12-03T08:44:30.550Z,100769.88
2022-12-03T08:47:19.116Z,100773.47
2022-12-03T08:49:58.202Z,100779.00
2022-12-03T08:52:33.439Z,100785.91
2022-12-03T08:55:13.034Z,100796.37
2022-12-03T08:57:41.334Z,100787.78
2022-12-03T09:00:19.232Z,100799.25
2022-12-03T09:02:52.327Z,100793.31
2022-12-03T09:05:21.188Z,100795.09
2022-12-03T09:07:48.920Z,100784.34
2022-12-03T09:10:16.605Z,100785.09
2022-12-03T09:12:44.288Z,100780.19
2022-12-03T09:15:11.678Z,100780.00
2022-12-03T09:17:39.003Z,100777.38
2022-12-03T09:20:07.656Z,100774.78
2022-12-03T09:22:35.102Z,100772.09
2022-12-03T09:25:02.389Z,100769.97
2022-12-03T09:27:29.938Z,100765.59
2022-12-03T09:29:57.295Z,100759.44
2022-12-03T09:32:24.724Z,100765.47
2022-12-03T09:34:52.754Z,100768.72
2022-12-03T09:37:22.073Z,100762.59
2022-12-03T09:39:49.399Z,100755.09
2022-12-03T09:42:17.285Z,100754.91
2022-12-03T09:44:44.670Z,100750.75
2022-12-03T09:47:12.179Z,100768.91
2022-12-03T09:49:40.817Z,100755.56
2022-12-03T09:52:08.493Z,100759.63
2022-12-03T09:54:40.532Z,100750.97
2022-12-03T09:57:15.030Z,100747.41
2022-12-03T09:59:42.425Z,100755.91
2022-12-03T10:02:22.335Z,100753.22
2022-12-03T10:04:50.068Z,100738.47
2022-12-03T10:07:17.634Z,100735.19
2022-12-03T10:09:45.200Z,100739.97
2022-12-03T10:12:14.011Z,100742.25
2022-12-03T10:14:41.856Z,100749.09
2022-12-03T10:17:11.010Z,100738.47
2022-12-03T10:19:39.570Z,100731.75
2022-12-03T10:22:06.935Z,100726.91
2022-12-03T10:24:37.927Z,100730.78
2022-12-03T10:27:24.007Z,100719.59
2022-12-03T10:29:58.738Z,100719.13
2022-12-03T10:32:38.625Z,100714.31
2022-12-03T10:35:08.500Z,100708.72
2022-12-03T10:37:36.363Z,100702.97
2022-12-03T10:40:11.393Z,100699.53
2022-12-03T10:42:40.442Z,100700.28
2022-12-03T10:45:13.638Z,100699.97
2022-12-03T10:47:42.362Z,100701.50
2022-12-03T10:50:17.033Z,100695.84
2022-12-03T10:52:45.411Z,100691.69
2022-12-03T10:55:13.962Z,100683.97
2022-12-03T10:57:45.581Z,100677.75
2022-12-03T11:00:18.401Z,100677.22
2022-12-03T11:02:53.047Z,100676.34
2022-12-03T11:05:26.747Z,100672.09
2022-12-03T11:07:54.479Z,100675.22
2022-12-03T11:10:22.290Z,100670.03
2022-12-03T11:13:27.298Z,100671.00
2022-12-03T11:15:55.248Z,100670.25
2022-12-03T11:18:36.622Z,100666.16
2022-12-03T11:21:12.447Z,100652.62
2022-12-03T11:23:45.896Z,100653.25
2022-12-03T11:26:19.546Z,100648.97
2022-12-03T11:28:47.121Z,100641.28
2022-12-03T11:31:46.753Z,100653.38
2022-12-03T11:34:17.247Z,100651.59
2022-12-03T11:37:09.488Z,100648.50
2022-12-03T11:39:52.449Z,100642.94
2022-12-03T11:42:26.419Z,100646.25
2022-12-03T11:45:02.962Z,100640.84
2022-12-03T11:47:46.203Z,100646.22
2022-12-03T11:50:39.612Z,100643.53
2022-12-03T11:53:07.759Z,100628.44
2022-12-03T11:55:40.252Z,100629.19
2022-12-03T11:58:38.271Z,100632.34
2022-12-03T12:01:07.308Z,100625.81
2022-12-03T12:03:49.556Z,100627.47
2022-12-03T12:06:19.529Z,100628.16
2022-12-03T12:08:57.274Z,100615.22
2022-12-03T12:11:28.673Z,100606.22
2022-12-03T12:14:04.069Z,100605.06
2022-12-03T12:16:47.598Z,100607.50
2022-12-03T12:19:36.450Z,100609.22
2022-12-03T12:22:24.928Z,100611.19
2022-12-03T12:24:52.517Z,100614.84
2022-12-03T12:27:25.626Z,100606.41
2022-12-03T12:29:58.484Z,100609.06
2022-12-03T12:32:34.253Z,100609.16
2022-12-03T12:35:25.612Z,100600.63
2022-12-03T12:38:00.037Z,100598.81
2022-12-03T12:40:30.337Z,100604.97
2022-12-03T12:43:15.213Z,100603.97
2022-12-03T12:45:44.247Z,100593.50
2022-12-03T12:48:14.544Z,100600.47
2022-12-03T12:50:46.972Z,100590.47
2022-12-03T12:53:24.831Z,100587.44
2022-12-03T12:55:58.039Z,100592.44
2022-12-03T12:58:26.543Z,100583.16
2022-12-03T13:00:57.987Z,100582.69
2022-12-03T13:03:31.682Z,100589.25
2022-12-03T13:05:59.056Z,100587.62
2022-12-03T13:08:38.226Z,100599.59
2022-12-03T13:11:06.249Z,100606.69
2022-12-03T13:13:43.319Z,100601.75
2022-12-03T13:16:16.754Z,100596.63
2022-12-03T13:18:49.285Z,100608.84
2022-12-03T13:21:19.959Z,100601.69
2022-12-03T13:23:48.358Z,100593.00
2022-12-03T13:26:36.553Z,100601.78
2022-12-03T13:29:12.621Z,100611.31
2022-12-03T13:31:43.865Z,100597.47
2022-12-03T13:34:17.039Z,100605.31
2022-12-03T13:36:44.774Z,100600.22
2022-12-03T13:39:20.234Z,100594.81
2022-12-03T13:42:06.205Z,100604.41
2022-12-03T13:44:34.385Z,100601.69
2022-12-03T13:47:11.872Z,100600.13
2022-12-03T13:49:39.683Z,100596.69
2022-12-03T13:52:13.087Z,100589.03
2022-12-03T13:54:40.796Z,100600.22
2022-12-03T13:57:08.159Z,100595.94
2022-12-03T13:59:35.513Z,100603.59
2022-12-03T14:02:03.238Z,100599.13
2022-12-03T14:04:30.830Z,100598.38
2022-12-03T14:06:58.153Z,100595.84
2022-12-03T14:09:25.510Z,100604.34
2022-12-03T14:12:11.742Z,100602.63
2022-12-03T14:14:39.164Z,100602.38
2022-12-03T14:17:07.525Z,100611.09
2022-12-03T14:19:34.954Z,100614.47
2022-12-03T14:22:02.595Z,100618.03
2022-12-03T14:24:30.191Z,100614.59
2022-12-03T14:26:57.503Z,100612.75
2022-12-03T14:29:24.808Z,100605.88
2022-12-03T14:31:52.507Z,100615.38
2022-12-03T14:34:20.213Z,100608.66
2022-12-03T14:36:47.658Z,100605.91
2022-12-03T14:39:15.233Z,100613.53
2022-12-03T14:42:01.059Z,100608.31
2022-12-03T14:44:28.631Z,100609.75
2022-12-03T14:46:57.550Z,100604.62
2022-12-03T14:49:25.957Z,100609.59
2022-12-03T14:51:53.545Z,100607.16
2022-12-03T14:54:20.916Z,100617.25
2022-12-03T14:56:48.228Z,100616.87
2022-12-03T14:59:15.837Z,100618.03
2022-12-03T15:01:43.225Z,100617.03
2022-12-03T15:04:10.627Z,100617.16
2022-12-03T15:06:38.433Z,100612.56
2022-12-03T15:09:05.890Z,100607.25
2022-12-03T15:11:33.224Z,100614.53
2022-12-03T15:14:00.870Z,100613.66
2022-12-03T15:16:28.418Z,100615.09
2022-12-03T15:18:55.771Z,100622.22
2022-12-03T15:21:23.390Z,100619.00
2022-12-03T15:23:50.775Z,100625.12
2022-12-03T15:26:18.067Z,100625.09
2022-12-03T15:28:48.463Z,100630.25
2022-12-03T15:31:16.065Z,100630.28
2022-12-03T15:33:43.430Z,100632.88
2022-12-03T15:36:11.055Z,100639.06
2022-12-03T15:38:38.553Z,100631.84
2022-12-03T15:41:21.475Z,100630.69
2022-12-03T15:43:52.708Z,100626.44
2022-12-03T15:46:20.582Z,100625.69
2022-12-03T15:48:48.152Z,100621.25
2022-12-03T15:51:15.790Z,100628.72
2022-12-03T15:53:43.086Z,100625.50
2022-12-03T15:56:12.051Z,100631.50
2022-12-03T15:58:40.399Z,100630.47
2022-12-03T16:01:08.852Z,100620.31
2022-12-03T16:03:36.864Z,100629.78
2022-12-03T16:06:04.373Z,100621.94
2022-12-03T16:08:31.678Z,100626.31
2022-12-03T16:10:59.296Z,100634.03
2022-12-03T16:13:26.767Z,100626.97
2022-12-03T16:15:54.433Z,100627.88
2022-12-03T16:18:22.086Z,100621.78
2022-12-03T16:20:49.813Z,100636.28
2022-12-03T16:23:17.097Z,100645.34
2022-12-03T16:25:44.762Z,100630.69
2022-12-03T16:28:12.994Z,100639.22
2022-12-03T16:30:40.341Z,100633.81
2022-12-03T16:33:07.946Z,100633.97
2022-12-03T16:35:35.242Z,100641.03
2022-12-03T16:38:02.587Z,100635.88
2022-12-03T16:40:30.205Z,100642.03
2022-12-03T16:42:57.591Z,100640.13
2022-12-03T16:45:51.555Z,100646.19
2022-12-03T16:48:19.315Z,100641.81
2022-12-03T16:50:46.713Z,100639.03
2022-12-03T16:53:14.652Z,100643.41
2022-12-03T16:55:42.282Z,100642.56
2022-12-03T16:58:09.653Z,100635.50
2022-12-03T17:00:36.935Z,100641.59
2022-12-03T17:03:04.638Z,100639.81
2022-12-03T17:05:32.065Z,100633.59
2022-12-03T17:07:59.421Z,100635.38
2022-12-03T17:10:27.112Z,100636.06
2022-12-03T17:13:09.377Z,100644.63
2022-12-03T17:15:37.959Z,100638.62
2022-12-03T17:18:05.871Z,100631.88
2022-12-03T17:20:33.678Z,100637.09
2022-12-03T17:23:01.388Z,100641.81
2022-12-03T17:25:29.378Z,100633.37
2022-12-03T17:27:57.769Z,100628.13
2022-12-03T17:30:25.305Z,100631.66
2022-12-03T17:32:52.682Z,100635.16
2022-12-03T17:35:20.065Z,100629.97
2022-12-03T17:37:47.683Z,100620.53
2022-12-03T17:40:16.944Z,100630.78
2022-12-03T17:42:44.294Z,100621.19
2022-12-03T17:45:12.475Z,100621.94
2022-12-03T17:47:39.877Z,100629.47
2022-12-03T17:50:08.107Z,100624.59
2022-12-03T17:52:35.720Z,100630.53
2022-12-03T17:55:15.717Z,100636.63
2022-12-03T17:57:45.528Z,100635.81
2022-12-03T18:00:13.226Z,100632.09
2022-12-03T18:02:42.330Z,100638.09
2022-12-03T18:05:10.067Z,100638.00
2022-12-03T18:07:38.526Z,100639.06
2022-12-03T18:10:07.247Z,100634.78
2022-12-03T18:12:34.558Z,100633.87
2022-12-03T18:15:04.093Z,100643.53
2022-12-03T18:17:31.791Z,100643.25
2022-12-03T18:19:59.244Z,100645.22
2022-12-03T18:22:27.685Z,100647.81
2022-12-03T18:24:55.584Z,100644.50
2022-12-03T18:27:23.591Z,100637.28
2022-12-03T18:29:50.940Z,100645.03
2022-12-03T18:32:33.020Z,100640.03
2022-12-03T18:35:00.319Z,100646.66
2022-12-03T18:37:29.203Z,100638.00
2022-12-03T18:39:57.927Z,100645.03
2022-12-03T18:42:26.030Z,100639.88
2022-12-03T18:44:55.367Z,100642.31
2022-12-03T18:47:26.303Z,100640.59
2022-12-03T18:49:54.956Z,100637.13
2022-12-03T18:52:23.150Z,100636.97
2022-12-03T18:54:50.582Z,100634.22
2022-12-03T18:57:18.198Z,100641.88
2022-12-03T18:59:45.699Z,100635.97
2022-12-03T19:02:38.607Z,100637.50
2022-12-03T19:05:04.561Z,100635.72
2022-12-03T19:07:31.885Z,100627.37
2022-12-03T19:09:59.199Z,100620.69
2022-12-03T19:12:26.766Z,100625.53
2022-12-03T19:14:54.110Z,100635.09
2022-12-03T19:17:21.667Z,100636.25
2022-12-03T19:19:49.317Z,100636.03
2022-12-03T19:22:16.613Z,100642.28
2022-12-03T19:24:44.078Z,100638.94
2022-12-03T19:27:11.664Z,100651.22
2022-12-03T19:29:39.400Z,100641.63
2022-12-03T19:32:06.845Z,100647.59
2022-12-03T19:34:34.516Z,100651.19
2022-12-03T19:37:01.893Z,100654.94
2022-12-03T19:39:29.333Z,100651.22
2022-12-03T19:41:56.974Z,100654.69
2022-12-03T19:44:24.370Z,100667.25
2022-12-03T19:46:51.775Z,100670.44
2022-12-03T19:49:21.254Z,100669.44
2022-12-03T19:51:48.765Z,100668.72
2022-12-03T19:54:16.757Z,100675.50
2022-12-03T19:56:44.435Z,100669.31
2022-12-03T19:59:12.983Z,100670.53
2022-12-03T20:01:40.882Z,100667.81
2022-12-03T20:04:09.107Z,100671.25
2022-12-03T20:06:38.302Z,100672.09
2022-12-03T20:09:18.177Z,100674.59
2022-12-03T20:11:50.435Z,100679.09
2022-12-03T20:14:17.912Z,100673.00
2022-12-03T20:16:46.099Z,100674.78
2022-12-03T20:19:15.236Z,100670.69
2022-12-03T20:21:43.677Z,100670.84
2022-12-03T20:24:15.092Z,100664.84
2022-12-03T20:26:42.890Z,100665.09
2022-12-03T20:29:10.493Z,100673.53
2022-12-03T20:31:37.866Z,100665.88
2022-12-03T20:34:05.499Z,100662.00
2022-12-03T20:36:33.088Z,100662.88
2022-12-03T20:39:02.805Z,100658.28
2022-12-03T20:41:30.446Z,100661.44
2022-12-03T20:43:57.737Z,100659.69
2022-12-03T20:46:29.041Z,100651.69
2022-12-03T20:48:57.716Z,100654.50
2022-12-03T20:51:28.100Z,100646.53
2022-12-03T20:53:56.326Z,100644.56
2022-12-03T20:56:31.256Z,100649.84
2022-12-03T20:59:04.891Z,100652.44
2022-12-03T21:01:32.608Z,100647.97
2022-12-03T21:04:00.232Z,100646.34
2022-12-03T21:06:29.823Z,100646.28
2022-12-03T21:08:58.509Z,100643.75
2022-12-03T21:11:29.504Z,100641.09
2022-12-03T21:13:58.156Z,100640.44
2022-12-03T21:16:59.290Z,100640.34
2022-12-03T21:19:18.087Z,100648.38
2022-12-03T21:21:45.445Z,100643.09
2022-12-03T21:24:13.524Z,100641.31
2022-12-03T21:26:41.476Z,100641.53
2022-12-03T21:29:08.802Z,100644.84
2022-12-03T21:31:37.805Z,100646.28
2022-12-03T21:34:05.511Z,100651.00
2022-12-03T21:36:32.952Z,100645.66
2022-12-03T21:39:00.405Z,100641.06
2022-12-03T21:41:28.063Z,100647.78
2022-12-03T21:43:55.419Z,100641.81
2022-12-03T21:47:10.775Z,100632.41
2022-12-03T21:49:10.365Z,100629.03
2022-12-03T21:51:37.778Z,100636.63
2022-12-03T21:54:05.184Z,100638.66
2022-12-03T21:56:33.129Z,100633.63
2022-12-03T21:59:00.541Z,100633.41
2022-12-03T22:01:27.982Z,100639.28
2022-12-03T22:03:55.739Z,100632.59
2022-12-03T22:06:23.767Z,100633.56
2022-12-03T22:08:51.080Z,100640.28
2022-12-03T22:11:23.318Z,100633.53
2022-12-03T22:13:51.287Z,100639.53
2022-12-03T22:16:20.399Z,100630.97
2022-12-03T22:18:48.036Z,100640.37
2022-12-03T22:21:17.856Z,100629.97
2022-12-03T22:23:45.752Z,100629.09
2022-12-03T22:26:15.386Z,100634.22
2022-12-03T22:28:43.733Z,100623.97
2022-12-03T22:31:12.092Z,100622.03
2022-12-03T22:33:39.724Z,100619.59
2022-12-03T22:36:14.673Z,100619.28
2022-12-03T22:38:45.807Z,100620.41
2022-12-03T22:41:13.803Z,100627.31
2022-12-03T22:43:41.145Z,100625.50
2022-12-03T22:46:12.289Z,100621.22
2022-12-03T22:48:41.129Z,100617.91
2022-12-03T22:51:20.075Z,100617.16
2022-12-03T22:53:48.367Z,100615.38
2022-12-03T22:56:17.178Z,100618.53
2022-12-03T22:58:44.478Z,100613.44
2022-12-03T23:01:24.110Z,100614.34
2022-12-03T23:03:51.872Z,100620.72
2022-12-03T23:06:19.526Z,100620.75
2022-12-03T23:08:47.364Z,100621.78
2022-12-03T23:11:15.382Z,100620.44
2022-12-03T23:13:42.899Z,100611.59
2022-12-03T23:16:23.650Z,100605.41
2022-12-03T23:18:52.598Z,100607.13
2022-12-03T23:21:28.922Z,100610.66
2022-12-03T23:24:01.589Z,100608.88
2022-12-03T23:26:29.168Z,100608.72
2022-12-03T23:28:56.786Z,100607.09
2022-12-03T23:31:26.664Z,100610.50
2022-12-03T23:33:55.416Z,100606.19
2022-12-03T23:36:24.017Z,100609.72
2022-12-03T23:38:51.407Z,100604.53
2022-12-03T23:41:20.506Z,100603.72
2022-12-03T23:43:48.283Z,100595.09
2022-12-03T23:46:24.327Z,100596.00
2022-12-03T23:48:52.404Z,100594.88
2022-12-03T23:51:23.742Z,100597.63
2022-12-03T23:53:52.970Z,100593.41
2022-12-03T23:56:23.230Z,100598.44
2022-12-03T23:58:50.618Z,100592.28
